Morning Clara — 9V7564 — position and weather

sailwx.info

Track history (hours):
 
Tides and Currents Weather Stations Pressure Air Temp Water Temp Dewpoint Dewpoint Depression Visibility Wind Speed Wind Dir Waves Ship Positions

Morning Clara

Last reported at 2018-Feb-20 16:58 UTC. Time now 2018-Feb-22 11:11 UTC.
Position N 01°17' E 103°21'.

Length 200 m; draft 9.6 m.

Type: Cargo ship. MMSI: 564254000.

Date/timePositionNaut miles runAvg speedWind from/ knotsBaromVisibWave heightAir tempDewpointWater temp
2018-Feb-20 16:58N 01°17' E 103°21'714.3
2018-Feb-20 16:30N 01°14' E 103°27'916.7
2018-Feb-20 15:58N 01°12' E 103°35'715.2
2018-Feb-20 15:30N 01°10' E 103°42'714.6
2018-Feb-20 15:00N 01°11' E 103°49'815.9
2018-Feb-20 14:30N 01°14' E 103°56'5 9.0
2018-Feb-20 13:59N 01°17' E 104°00'0 0.0
2018-Feb-20 05:51N 01°17' E 103°60'2 4.6
2018-Feb-20 05:22N 01°16' E 103°58'0 0.8
2018-Feb-20 05:00N 01°16' E 103°58'2 4.4
2018-Feb-20 04:29N 01°16' E 104°00'  
2018-Feb-16 05:08N 22°42' E 119°46'216.6
2018-Feb-16 04:59N 22°44' E 119°47'3515.9
2018-Feb-16 02:49N 23°19' E 119°53'514.2
2018-Feb-16 02:30N 23°23' E 119°53'1013.8
2018-Feb-16 01:47N 23°33' E 119°54'412.8
2018-Feb-16 01:31N 23°36' E 119°54'47315.4
2018-Feb-14 18:46N 31°02' E 122°51'517.9
2018-Feb-14 18:30N 31°04' E 122°46'816.9
2018-Feb-14 18:00N 31°05' E 122°37'816.5
2018-Feb-14 17:30N 31°05' E 122°27'714.2
2018-Feb-14 17:00N 31°06' E 122°19'1215.2
2018-Feb-14 16:11N 31°13' E 122°07'314.6
2018-Feb-14 15:57N 31°14' E 122°03'614.2
2018-Feb-14 15:30N 31°15' E 121°56'713.3
2018-Feb-14 14:57N 31°18' E 121°48'510.1
2018-Feb-14 14:29N 31°19' E 121°42'50 1.7
2018-Feb-13 09:03N 31°07' E 122°39'0 4.6
2018-Feb-13 09:00N 31°07' E 122°40'  
Track history (hours):
 
Tides and Currents Weather Stations Pressure Air Temp Water Temp Dewpoint Dewpoint Depression Visibility Wind Speed Wind Dir Waves Ship Positions

Morning Clara

Last reported at 2018-Feb-20 16:58 UTC. Time now 2018-Feb-22 11:11 UTC.
Position N 01°17' E 103°21'.

Length 200 m; draft 9.6 m.

Type: Cargo ship. MMSI: 564254000.

Date/timePositionNaut miles runAvg speedWind from/ knotsBaromVisibWave heightAir tempDewpointWater temp
2018-Feb-20 16:58N 01°17' E 103°21'714.3
2018-Feb-20 16:30N 01°14' E 103°27'916.7
2018-Feb-20 15:58N 01°12' E 103°35'715.2
2018-Feb-20 15:30N 01°10' E 103°42'714.6
2018-Feb-20 15:00N 01°11' E 103°49'815.9
2018-Feb-20 14:30N 01°14' E 103°56'5 9.0
2018-Feb-20 13:59N 01°17' E 104°00'0 0.0
2018-Feb-20 05:51N 01°17' E 103°60'2 4.6
2018-Feb-20 05:22N 01°16' E 103°58'0 0.8
2018-Feb-20 05:00N 01°16' E 103°58'2 4.4
2018-Feb-20 04:29N 01°16' E 104°00'  
2018-Feb-16 05:08N 22°42' E 119°46'216.6
2018-Feb-16 04:59N 22°44' E 119°47'3515.9
2018-Feb-16 02:49N 23°19' E 119°53'514.2
2018-Feb-16 02:30N 23°23' E 119°53'1013.8
2018-Feb-16 01:47N 23°33' E 119°54'412.8
2018-Feb-16 01:31N 23°36' E 119°54'47315.4
2018-Feb-14 18:46N 31°02' E 122°51'517.9
2018-Feb-14 18:30N 31°04' E 122°46'816.9
2018-Feb-14 18:00N 31°05' E 122°37'816.5
2018-Feb-14 17:30N 31°05' E 122°27'714.2
2018-Feb-14 17:00N 31°06' E 122°19'1215.2
2018-Feb-14 16:11N 31°13' E 122°07'314.6
2018-Feb-14 15:57N 31°14' E 122°03'614.2
2018-Feb-14 15:30N 31°15' E 121°56'713.3
2018-Feb-14 14:57N 31°18' E 121°48'510.1
2018-Feb-14 14:29N 31°19' E 121°42'50 1.7
2018-Feb-13 09:03N 31°07' E 122°39'0 4.6
2018-Feb-13 09:00N 31°07' E 122°40'  

Dump ship's entire track history